sensor_id;sensor_type;location;lat;lon;timestamp;pressure;altitude;pressure_sealevel;temperature;humidity
70902;BME280;58548;47.210;8.618;2024-03-02T00:01:27;93007.66;;;15.05;38.33
70902;BME280;58548;47.210;8.618;2024-03-02T00:03:55;92943.91;;;14.53;38.01
70902;BME280;58548;47.210;8.618;2024-03-02T00:06:24;92998.25;;;14.87;38.28
70902;BME280;58548;47.210;8.618;2024-03-02T00:08:49;93012.25;;;14.92;38.24
70902;BME280;58548;47.210;8.618;2024-03-02T00:11:20;92984.97;;;14.76;38.41
70902;BME280;58548;47.210;8.618;2024-03-02T00:13:49;93019.88;;;14.94;38.33
70902;BME280;58548;47.210;8.618;2024-03-02T00:16:17;93021.25;;;14.97;38.41
70902;BME280;58548;47.210;8.618;2024-03-02T00:18:46;93028.09;;;14.98;38.60
70902;BME280;58548;47.210;8.618;2024-03-02T00:21:14;92993.72;;;14.82;38.58
70902;BME280;58548;47.210;8.618;2024-03-02T00:23:48;93016.56;;;14.99;38.47
70902;BME280;58548;47.210;8.618;2024-03-02T00:26:17;93011.69;;;14.90;38.51
70902;BME280;58548;47.210;8.618;2024-03-02T00:28:43;93001.75;;;14.92;38.57
70902;BME280;58548;47.210;8.618;2024-03-02T00:31:14;93020.78;;;15.00;39.15
70902;BME280;58548;47.210;8.618;2024-03-02T00:36:10;93021.06;;;15.03;38.43
70902;BME280;58548;47.210;8.618;2024-03-02T00:38:48;93017.66;;;15.03;38.92
70902;BME280;58548;47.210;8.618;2024-03-02T00:41:30;93025.03;;;15.06;38.63
70902;BME280;58548;47.210;8.618;2024-03-02T00:44:01;93045.13;;;15.12;38.61
70902;BME280;58548;47.210;8.618;2024-03-02T00:49:04;93038.25;;;15.11;38.19
70902;BME280;58548;47.210;8.618;2024-03-02T00:51:32;93037.72;;;15.09;38.42
70902;BME280;58548;47.210;8.618;2024-03-02T00:54:03;93019.19;;;14.99;38.44
70902;BME280;58548;47.210;8.618;2024-03-02T00:56:32;93021.34;;;15.02;38.11
70902;BME280;58548;47.210;8.618;2024-03-02T00:58:59;93001.19;;;14.90;38.31
70902;BME280;58548;47.210;8.618;2024-03-02T01:01:27;93032.44;;;15.09;38.21
70902;BME280;58548;47.210;8.618;2024-03-02T01:03:58;93032.63;;;15.02;37.90
70902;BME280;58548;47.210;8.618;2024-03-02T01:06:27;93029.69;;;14.99;38.11
70902;BME280;58548;47.210;8.618;2024-03-02T01:08:53;93025.47;;;14.98;38.31
70902;BME280;58548;47.210;8.618;2024-03-02T01:11:23;93001.06;;;14.80;37.95
70902;BME280;58548;47.210;8.618;2024-03-02T01:13:52;93018.84;;;14.95;37.79
70902;BME280;58548;47.210;8.618;2024-03-02T01:16:21;93029.63;;;14.93;38.37
70902;BME280;58548;47.210;8.618;2024-03-02T01:18:47;93014.25;;;14.85;37.93
70902;BME280;58548;47.210;8.618;2024-03-02T01:21:18;93035.13;;;14.92;37.84
70902;BME280;58548;47.210;8.618;2024-03-02T01:23:46;93004.09;;;14.72;37.76
70902;BME280;58548;47.210;8.618;2024-03-02T01:26:12;93016.03;;;14.80;37.88
70902;BME280;58548;47.210;8.618;2024-03-02T01:28:38;93036.41;;;14.89;38.11
70902;BME280;58548;47.210;8.618;2024-03-02T01:31:04;92972.00;;;14.53;37.91
70902;BME280;58548;47.210;8.618;2024-03-02T01:33:35;92993.44;;;14.61;38.52
70902;BME280;58548;47.210;8.618;2024-03-02T01:36:03;93026.78;;;14.78;38.29
70902;BME280;58548;47.210;8.618;2024-03-02T01:38:29;93022.09;;;14.80;38.51
70902;BME280;58548;47.210;8.618;2024-03-02T01:40:56;93036.09;;;14.86;38.44
70902;BME280;58548;47.210;8.618;2024-03-02T01:43:24;92994.47;;;14.60;38.31
70902;BME280;58548;47.210;8.618;2024-03-02T01:45:50;93008.56;;;14.71;38.40
70902;BME280;58548;47.210;8.618;2024-03-02T01:48:15;93037.50;;;14.93;38.62
70902;BME280;58548;47.210;8.618;2024-03-02T01:50:42;93040.38;;;14.92;38.34
70902;BME280;58548;47.210;8.618;2024-03-02T01:53:08;93026.84;;;14.83;38.38
70902;BME280;58548;47.210;8.618;2024-03-02T01:55:35;93038.38;;;14.99;38.61
70902;BME280;58548;47.210;8.618;2024-03-02T01:58:02;93039.72;;;15.02;38.34
70902;BME280;58548;47.210;8.618;2024-03-02T02:00:33;93034.47;;;15.02;38.60
70902;BME280;58548;47.210;8.618;2024-03-02T02:03:01;93036.06;;;15.03;38.14
70902;BME280;58548;47.210;8.618;2024-03-02T02:05:29;93046.06;;;15.06;38.70
70902;BME280;58548;47.210;8.618;2024-03-02T02:07:57;93021.25;;;14.97;38.43
70902;BME280;58548;47.210;8.618;2024-03-02T02:10:24;93013.84;;;14.93;38.47
70902;BME280;58548;47.210;8.618;2024-03-02T02:12:50;93023.97;;;15.02;38.38
70902;BME280;58548;47.210;8.618;2024-03-02T02:17:56;93018.63;;;14.97;38.56
70902;BME280;58548;47.210;8.618;2024-03-02T02:20:25;93040.97;;;15.16;38.57
70902;BME280;58548;47.210;8.618;2024-03-02T02:22:59;93024.81;;;15.07;38.24
70902;BME280;58548;47.210;8.618;2024-03-02T02:25:25;93016.06;;;15.02;38.27
70902;BME280;58548;47.210;8.618;2024-03-02T02:27:51;93025.41;;;15.15;38.16
70902;BME280;58548;47.210;8.618;2024-03-02T02:30:29;93018.75;;;15.07;38.37
70902;BME280;58548;47.210;8.618;2024-03-02T02:32:55;93010.56;;;15.03;38.35
70902;BME280;58548;47.210;8.618;2024-03-02T02:35:24;93020.34;;;15.08;38.47
70902;BME280;58548;47.210;8.618;2024-03-02T02:37:52;93005.56;;;15.02;38.33
70902;BME280;58548;47.210;8.618;2024-03-02T02:40:21;93001.34;;;15.01;38.51
70902;BME280;58548;47.210;8.618;2024-03-02T02:42:47;93020.97;;;15.15;38.41
70902;BME280;58548;47.210;8.618;2024-03-02T02:45:15;93012.81;;;15.17;38.20
70902;BME280;58548;47.210;8.618;2024-03-02T02:47:44;93011.00;;;15.17;37.93
70902;BME280;58548;47.210;8.618;2024-03-02T02:50:14;92986.91;;;15.03;38.05
70902;BME280;58548;47.210;8.618;2024-03-02T02:52:44;92976.63;;;15.02;38.18
70902;BME280;58548;47.210;8.618;2024-03-02T02:55:11;92997.31;;;15.15;38.00
70902;BME280;58548;47.210;8.618;2024-03-02T02:57:42;93002.00;;;15.13;37.91
70902;BME280;58548;47.210;8.618;2024-03-02T03:00:13;92983.78;;;15.06;37.87
70902;BME280;58548;47.210;8.618;2024-03-02T03:02:41;92955.72;;;14.90;38.03
70902;BME280;58548;47.210;8.618;2024-03-02T03:05:09;92997.31;;;15.15;38.17
70902;BME280;58548;47.210;8.618;2024-03-02T03:07:39;92978.47;;;15.01;37.87
70902;BME280;58548;47.210;8.618;2024-03-02T03:10:05;93000.66;;;15.11;37.52
70902;BME280;58548;47.210;8.618;2024-03-02T03:12:33;92969.94;;;14.94;37.66
70902;BME280;58548;47.210;8.618;2024-03-02T03:15:04;92991.41;;;15.08;37.68
70902;BME280;58548;47.210;8.618;2024-03-02T03:17:32;92992.72;;;15.05;37.66
70902;BME280;58548;47.210;8.618;2024-03-02T03:19:58;92969.81;;;14.84;37.61
70902;BME280;58548;47.210;8.618;2024-03-02T03:22:24;92964.28;;;14.80;37.69
70902;BME280;58548;47.210;8.618;2024-03-02T03:24:50;92990.25;;;14.99;37.87
70902;BME280;58548;47.210;8.618;2024-03-02T03:27:19;92990.81;;;15.01;37.85
70902;BME280;58548;47.210;8.618;2024-03-02T03:29:45;92988.13;;;14.96;38.10
70902;BME280;58548;47.210;8.618;2024-03-02T03:32:14;92984.38;;;14.91;37.79
70902;BME280;58548;47.210;8.618;2024-03-02T03:34:40;92989.22;;;15.00;38.28
70902;BME280;58548;47.210;8.618;2024-03-02T03:37:06;92976.97;;;14.88;38.22
70902;BME280;58548;47.210;8.618;2024-03-02T03:39:34;92973.97;;;14.80;38.08
70902;BME280;58548;47.210;8.618;2024-03-02T03:42:03;92988.13;;;14.96;37.84
70902;BME280;58548;47.210;8.618;2024-03-02T03:44:29;92970.59;;;14.84;37.76
70902;BME280;58548;47.210;8.618;2024-03-02T03:46:55;92989.16;;;14.95;38.15
70902;BME280;58548;47.210;8.618;2024-03-02T03:49:22;92969.53;;;14.80;37.38
70902;BME280;58548;47.210;8.618;2024-03-02T03:51:55;92997.53;;;14.91;37.60
70902;BME280;58548;47.210;8.618;2024-03-02T03:54:23;92991.72;;;14.89;37.76
70902;BME280;58548;47.210;8.618;2024-03-02T03:56:50;92977.81;;;14.72;37.42
70902;BME280;58548;47.210;8.618;2024-03-02T03:59:25;92973.84;;;14.69;37.21
70902;BME280;58548;47.210;8.618;2024-03-02T04:01:53;92963.72;;;14.61;37.30
70902;BME280;58548;47.210;8.618;2024-03-02T04:04:23;92988.81;;;14.69;37.46
70902;BME280;58548;47.210;8.618;2024-03-02T04:06:54;92934.38;;;14.30;37.42
70902;BME280;58548;47.210;8.618;2024-03-02T04:09:22;92985.94;;;14.53;37.26
70902;BME280;58548;47.210;8.618;2024-03-02T04:11:49;92981.34;;;14.43;37.50
70902;BME280;58548;47.210;8.618;2024-03-02T04:14:14;92958.13;;;14.18;37.65
70902;BME280;58548;47.210;8.618;2024-03-02T04:16:43;92960.66;;;14.13;37.62
70902;BME280;58548;47.210;8.618;2024-03-02T04:19:11;92974.28;;;14.27;37.55
70902;BME280;58548;47.210;8.618;2024-03-02T04:21:39;92967.34;;;14.21;37.43
70902;BME280;58548;47.210;8.618;2024-03-02T04:24:09;92974.97;;;14.22;37.67
70902;BME280;58548;47.210;8.618;2024-03-02T04:26:35;92983.88;;;14.21;37.35
70902;BME280;58548;47.210;8.618;2024-03-02T04:29:04;92980.53;;;14.09;37.49
70902;BME280;58548;47.210;8.618;2024-03-02T04:31:33;92991.59;;;14.11;37.65
70902;BME280;58548;47.210;8.618;2024-03-02T04:33:59;92984.91;;;14.03;37.41
70902;BME280;58548;47.210;8.618;2024-03-02T04:36:24;92970.50;;;13.88;37.20
70902;BME280;58548;47.210;8.618;2024-03-02T04:38:50;92978.31;;;13.83;37.92
70902;BME280;58548;47.210;8.618;2024-03-02T04:41:17;92970.03;;;13.75;37.82
70902;BME280;58548;47.210;8.618;2024-03-02T04:43:43;92986.06;;;13.78;37.80
70902;BME280;58548;47.210;8.618;2024-03-02T04:46:13;92987.34;;;13.76;38.11
70902;BME280;58548;47.210;8.618;2024-03-02T04:48:39;92977.34;;;13.72;38.03
70902;BME280;58548;47.210;8.618;2024-03-02T04:51:05;92987.25;;;13.70;38.11
70902;BME280;58548;47.210;8.618;2024-03-02T04:53:31;92989.88;;;13.70;38.25
70902;BME280;58548;47.210;8.618;2024-03-02T04:55:59;92958.50;;;13.47;38.21
70902;BME280;58548;47.210;8.618;2024-03-02T04:58:57;92976.00;;;13.58;38.17
70902;BME280;58548;47.210;8.618;2024-03-02T05:01:23;92994.09;;;13.71;38.58
70902;BME280;58548;47.210;8.618;2024-03-02T05:03:49;92956.44;;;13.49;38.50
70902;BME280;58548;47.210;8.618;2024-03-02T05:06:17;92987.72;;;13.67;38.06
70902;BME280;58548;47.210;8.618;2024-03-02T05:08:42;92980.78;;;13.61;38.17
70902;BME280;58548;47.210;8.618;2024-03-02T05:11:11;93000.94;;;13.72;38.27
70902;BME280;58548;47.210;8.618;2024-03-02T05:14:06;92997.41;;;13.67;38.46
70902;BME280;58548;47.210;8.618;2024-03-02T05:16:39;92980.47;;;13.57;38.11
70902;BME280;58548;47.210;8.618;2024-03-02T05:19:07;92970.13;;;13.51;38.43
70902;BME280;58548;47.210;8.618;2024-03-02T05:21:34;92992.88;;;13.62;38.27
70902;BME280;58548;47.210;8.618;2024-03-02T05:24:03;93001.88;;;13.66;38.27
70902;BME280;58548;47.210;8.618;2024-03-02T05:26:31;92998.69;;;13.64;38.02
70902;BME280;58548;47.210;8.618;2024-03-02T05:28:57;92989.63;;;13.55;38.14
70902;BME280;58548;47.210;8.618;2024-03-02T05:31:25;93006.00;;;13.62;38.21
70902;BME280;58548;47.210;8.618;2024-03-02T05:33:54;92993.03;;;13.55;38.44
70902;BME280;58548;47.210;8.618;2024-03-02T05:36:22;92964.34;;;13.37;38.12
70902;BME280;58548;47.210;8.618;2024-03-02T05:38:48;93001.22;;;13.59;38.24
70902;BME280;58548;47.210;8.618;2024-03-02T05:41:16;93006.38;;;13.54;38.50
70902;BME280;58548;47.210;8.618;2024-03-02T05:43:42;92997.38;;;13.50;38.21
70902;BME280;58548;47.210;8.618;2024-03-02T05:46:08;92971.88;;;13.33;38.36
70902;BME280;58548;47.210;8.618;2024-03-02T05:48:34;93009.66;;;13.61;38.80
70902;BME280;58548;47.210;8.618;2024-03-02T05:51:00;92983.81;;;13.53;38.68
70902;BME280;58548;47.210;8.618;2024-03-02T05:53:26;93005.53;;;13.65;38.56
70902;BME280;58548;47.210;8.618;2024-03-02T05:55:51;93009.75;;;13.66;38.53
70902;BME280;58548;47.210;8.618;2024-03-02T05:58:21;92993.34;;;13.59;38.52
70902;BME280;58548;47.210;8.618;2024-03-02T06:00:53;93003.47;;;13.67;38.46
70902;BME280;58548;47.210;8.618;2024-03-02T06:03:20;92996.06;;;13.64;38.87
70902;BME280;58548;47.210;8.618;2024-03-02T06:05:46;92973.63;;;13.56;38.44
70902;BME280;58548;47.210;8.618;2024-03-02T06:08:14;93009.78;;;13.83;38.21
70902;BME280;58548;47.210;8.618;2024-03-02T06:10:40;92990.03;;;13.81;38.32
70902;BME280;58548;47.210;8.618;2024-03-02T06:13:06;92994.19;;;13.77;38.14
70902;BME280;58548;47.210;8.618;2024-03-02T06:15:35;92980.31;;;13.64;38.66
70902;BME280;58548;47.210;8.618;2024-03-02T06:18:02;92992.97;;;13.67;38.43
70902;BME280;58548;47.210;8.618;2024-03-02T06:20:30;93008.19;;;13.82;38.23
70902;BME280;58548;47.210;8.618;2024-03-02T06:22:59;92993.06;;;13.72;38.01
70902;BME280;58548;47.210;8.618;2024-03-02T06:25:26;92995.91;;;13.71;38.13
70902;BME280;58548;47.210;8.618;2024-03-02T06:27:54;92999.00;;;13.68;38.13
70902;BME280;58548;47.210;8.618;2024-03-02T06:30:22;93010.88;;;13.70;38.26
70902;BME280;58548;47.210;8.618;2024-03-02T06:32:49;93012.47;;;13.71;38.17
70902;BME280;58548;47.210;8.618;2024-03-02T06:35:18;92986.66;;;13.51;37.64
70902;BME280;58548;47.210;8.618;2024-03-02T06:37:44;93018.66;;;13.65;38.13
70902;BME280;58548;47.210;8.618;2024-03-02T06:40:12;93006.13;;;13.55;38.29
70902;BME280;58548;47.210;8.618;2024-03-02T06:42:40;93021.84;;;13.67;37.95
70902;BME280;58548;47.210;8.618;2024-03-02T06:45:06;92989.84;;;13.53;37.98
70902;BME280;58548;47.210;8.618;2024-03-02T06:47:34;93001.31;;;13.64;38.13
70902;BME280;58548;47.210;8.618;2024-03-02T06:50:00;92991.84;;;13.63;37.89
70902;BME280;58548;47.210;8.618;2024-03-02T06:52:29;93013.75;;;13.86;38.52
70902;BME280;58548;47.210;8.618;2024-03-02T06:54:55;92985.94;;;13.85;38.59
70902;BME280;58548;47.210;8.618;2024-03-02T06:57:25;93011.56;;;14.12;37.88
70902;BME280;58548;47.210;8.618;2024-03-02T06:59:53;92973.03;;;14.00;38.23
70902;BME280;58548;47.210;8.618;2024-03-02T07:02:27;93004.88;;;14.55;38.10
70902;BME280;58548;47.210;8.618;2024-03-02T07:04:55;93012.63;;;14.79;38.31
70902;BME280;58548;47.210;8.618;2024-03-02T07:07:21;93004.16;;;15.16;39.03
70902;BME280;58548;47.210;8.618;2024-03-02T07:09:52;93005.53;;;15.68;38.83
70902;BME280;58548;47.210;8.618;2024-03-02T07:12:20;93010.59;;;16.30;38.73
70902;BME280;58548;47.210;8.618;2024-03-02T07:14:46;92952.81;;;16.61;37.02
70902;BME280;58548;47.210;8.618;2024-03-02T07:17:37;92989.44;;;17.69;36.26
70902;BME280;58548;47.210;8.618;2024-03-02T07:20:05;92983.47;;;18.31;35.75
70902;BME280;58548;47.210;8.618;2024-03-02T07:22:39;92988.97;;;19.02;34.54
70902;BME280;58548;47.210;8.618;2024-03-02T07:25:16;93001.72;;;19.60;33.61
70902;BME280;58548;47.210;8.618;2024-03-02T07:27:49;92997.69;;;20.18;33.46
70902;BME280;58548;47.210;8.618;2024-03-02T07:30:17;92979.59;;;20.65;31.99
70902;BME280;58548;47.210;8.618;2024-03-02T07:32:43;92965.63;;;21.08;30.00
70902;BME280;58548;47.210;8.618;2024-03-02T07:35:12;92980.88;;;21.70;30.73
70902;BME280;58548;47.210;8.618;2024-03-02T07:37:39;92974.97;;;22.11;29.67
70902;BME280;58548;47.210;8.618;2024-03-02T07:40:05;92960.78;;;22.54;28.87
70902;BME280;58548;47.210;8.618;2024-03-02T07:42:35;92968.53;;;23.12;27.38
70902;BME280;58548;47.210;8.618;2024-03-02T07:45:07;92965.41;;;23.66;26.05
70902;BME280;58548;47.210;8.618;2024-03-02T07:47:34;92973.25;;;23.99;24.41
70902;BME280;58548;47.210;8.618;2024-03-02T07:50:00;92973.72;;;24.37;23.90
70902;BME280;58548;47.210;8.618;2024-03-02T07:52:26;92948.63;;;24.70;24.05
70902;BME280;58548;47.210;8.618;2024-03-02T07:54:52;92975.69;;;25.40;24.05
70902;BME280;58548;47.210;8.618;2024-03-02T07:57:21;92972.66;;;25.91;22.93
70902;BME280;58548;47.210;8.618;2024-03-02T07:59:49;92947.84;;;26.17;22.74
70902;BME280;58548;47.210;8.618;2024-03-02T08:02:17;92975.34;;;26.61;22.31
70902;BME280;58548;47.210;8.618;2024-03-02T08:04:43;92970.09;;;26.91;22.82
70902;BME280;58548;47.210;8.618;2024-03-02T08:07:12;92941.56;;;26.96;21.35
70902;BME280;58548;47.210;8.618;2024-03-02T08:09:38;92968.25;;;27.31;20.32
70902;BME280;58548;47.210;8.618;2024-03-02T08:12:06;92945.69;;;27.32;21.35
70902;BME280;58548;47.210;8.618;2024-03-02T08:14:37;92962.59;;;27.62;21.26
70902;BME280;58548;47.210;8.618;2024-03-02T08:17:07;92973.50;;;28.08;21.36
70902;BME280;58548;47.210;8.618;2024-03-02T08:19:38;92970.00;;;28.50;20.35
70902;BME280;58548;47.210;8.618;2024-03-02T08:22:04;92942.00;;;28.72;20.35
70902;BME280;58548;47.210;8.618;2024-03-02T08:24:33;92946.72;;;29.09;19.79
70902;BME280;58548;47.210;8.618;2024-03-02T08:27:00;92963.22;;;29.57;19.27
70902;BME280;58548;47.210;8.618;2024-03-02T08:29:26;92947.94;;;29.74;18.57
70902;BME280;58548;47.210;8.618;2024-03-02T08:31:52;92951.50;;;29.90;17.82
70902;BME280;58548;47.210;8.618;2024-03-02T08:34:18;92930.22;;;29.98;18.37
70902;BME280;58548;47.210;8.618;2024-03-02T08:36:46;92922.91;;;30.39;18.79
70902;BME280;58548;47.210;8.618;2024-03-02T08:39:12;92932.75;;;30.76;18.42
70902;BME280;58548;47.210;8.618;2024-03-02T08:41:47;92934.00;;;31.10;18.40
70902;BME280;58548;47.210;8.618;2024-03-02T08:44:14;92932.44;;;31.41;17.30
70902;BME280;58548;47.210;8.618;2024-03-02T08:46:43;92938.28;;;31.76;17.18
70902;BME280;58548;47.210;8.618;2024-03-02T08:49:09;92889.41;;;31.81;17.32
70902;BME280;58548;47.210;8.618;2024-03-02T08:51:35;92932.28;;;32.22;16.19
70902;BME280;58548;47.210;8.618;2024-03-02T08:54:01;92919.56;;;32.42;16.71
70902;BME280;58548;47.210;8.618;2024-03-02T08:56:35;92918.97;;;32.72;16.59
70902;BME280;58548;47.210;8.618;2024-03-02T08:59:04;92915.34;;;32.84;15.57
70902;BME280;58548;47.210;8.618;2024-03-02T09:01:30;92920.34;;;33.05;15.18
70902;BME280;58548;47.210;8.618;2024-03-02T09:03:59;92912.59;;;33.03;14.77
70902;BME280;58548;47.210;8.618;2024-03-02T09:06:25;92910.25;;;33.02;15.15
70902;BME280;58548;47.210;8.618;2024-03-02T09:08:50;92920.09;;;32.90;14.73
70902;BME280;58548;47.210;8.618;2024-03-02T09:11:17;92887.28;;;32.49;15.12
70902;BME280;58548;47.210;8.618;2024-03-02T09:13:43;92889.09;;;32.41;15.25
70902;BME280;58548;47.210;8.618;2024-03-02T09:16:11;92898.19;;;32.33;15.61
70902;BME280;58548;47.210;8.618;2024-03-02T09:18:37;92884.81;;;32.40;15.54
70902;BME280;58548;47.210;8.618;2024-03-02T09:21:04;92909.66;;;32.69;15.58
70902;BME280;58548;47.210;8.618;2024-03-02T09:23:33;92915.25;;;33.00;15.21
70902;BME280;58548;47.210;8.618;2024-03-02T09:25:59;92905.28;;;33.31;14.72
70902;BME280;58548;47.210;8.618;2024-03-02T09:28:25;92901.88;;;33.57;15.08
70902;BME280;58548;47.210;8.618;2024-03-02T09:30:52;92885.66;;;33.88;14.30
70902;BME280;58548;47.210;8.618;2024-03-02T09:33:20;92901.53;;;34.20;13.63
70902;BME280;58548;47.210;8.618;2024-03-02T09:35:46;92893.25;;;34.39;14.19
70902;BME280;58548;47.210;8.618;2024-03-02T09:38:14;92875.84;;;34.40;12.99
70902;BME280;58548;47.210;8.618;2024-03-02T09:40:41;92868.25;;;34.50;12.74
70902;BME280;58548;47.210;8.618;2024-03-02T09:43:07;92893.94;;;34.63;12.85
70902;BME280;58548;47.210;8.618;2024-03-02T09:45:37;92893.66;;;34.76;13.22
70902;BME280;58548;47.210;8.618;2024-03-02T09:48:04;92882.53;;;34.88;13.16
70902;BME280;58548;47.210;8.618;2024-03-02T09:50:31;92873.41;;;35.03;13.33
70902;BME280;58548;47.210;8.618;2024-03-02T09:52:58;92889.09;;;35.28;13.00
70902;BME280;58548;47.210;8.618;2024-03-02T09:55:27;92865.50;;;35.36;12.78
70902;BME280;58548;47.210;8.618;2024-03-02T09:57:56;92896.41;;;35.73;12.73
70902;BME280;58548;47.210;8.618;2024-03-02T10:00:25;92887.91;;;35.78;12.40
70902;BME280;58548;47.210;8.618;2024-03-02T10:02:51;92889.47;;;35.79;12.06
70902;BME280;58548;47.210;8.618;2024-03-02T10:05:26;92859.78;;;35.45;12.05
70902;BME280;58548;47.210;8.618;2024-03-02T10:08:02;92885.56;;;35.73;12.60
70902;BME280;58548;47.210;8.618;2024-03-02T10:10:41;92865.94;;;35.98;12.41
70902;BME280;58548;47.210;8.618;2024-03-02T10:13:10;92876.84;;;36.09;11.97
70902;BME280;58548;47.210;8.618;2024-03-02T10:15:38;92871.78;;;36.07;12.05
70902;BME280;58548;47.210;8.618;2024-03-02T10:18:11;92876.06;;;36.12;11.75
70902;BME280;58548;47.210;8.618;2024-03-02T10:20:38;92877.34;;;36.43;11.58
70902;BME280;58548;47.210;8.618;2024-03-02T10:23:18;92840.88;;;36.48;11.99
70902;BME280;58548;47.210;8.618;2024-03-02T10:25:44;92884.84;;;36.93;11.12
70902;BME280;58548;47.210;8.618;2024-03-02T10:28:10;92885.66;;;36.94;11.36
70902;BME280;58548;47.210;8.618;2024-03-02T10:30:39;92856.44;;;36.80;10.95
70902;BME280;58548;47.210;8.618;2024-03-02T10:33:06;92871.69;;;37.06;11.46
70902;BME280;58548;47.210;8.618;2024-03-02T10:35:34;92879.44;;;37.33;11.55
70902;BME280;58548;47.210;8.618;2024-03-02T10:38:04;92863.50;;;37.28;11.01
70902;BME280;58548;47.210;8.618;2024-03-02T10:40:32;92879.81;;;37.50;10.92
70902;BME280;58548;47.210;8.618;2024-03-02T10:43:01;92870.47;;;37.62;11.09
70902;BME280;58548;47.210;8.618;2024-03-02T10:45:31;92831.56;;;37.65;10.65
70902;BME280;58548;47.210;8.618;2024-03-02T10:47:57;92836.19;;;37.79;10.74
70902;BME280;58548;47.210;8.618;2024-03-02T10:50:24;92849.75;;;38.08;10.43
70902;BME280;58548;47.210;8.618;2024-03-02T10:52:52;92823.69;;;37.99;10.73
70902;BME280;58548;47.210;8.618;2024-03-02T10:55:18;92824.41;;;38.18;10.35
70902;BME280;58548;47.210;8.618;2024-03-02T10:57:54;92840.22;;;38.52;10.81
70902;BME280;58548;47.210;8.618;2024-03-02T11:00:24;92845.94;;;38.72;10.43
70902;BME280;58548;47.210;8.618;2024-03-02T11:03:12;92821.78;;;38.67;10.15
70902;BME280;58548;47.210;8.618;2024-03-02T11:05:44;92835.44;;;38.67;10.21
70902;BME280;58548;47.210;8.618;2024-03-02T11:08:18;92825.34;;;38.60;10.08
70902;BME280;58548;47.210;8.618;2024-03-02T11:11:07;92803.25;;;38.44;10.08
70902;BME280;58548;47.210;8.618;2024-03-02T11:13:34;92803.25;;;38.37;9.99
70902;BME280;58548;47.210;8.618;2024-03-02T11:16:09;92832.88;;;38.35;10.67
70902;BME280;58548;47.210;8.618;2024-03-02T11:18:40;92815.03;;;38.19;10.33
70902;BME280;58548;47.210;8.618;2024-03-02T11:21:07;92812.00;;;38.10;10.82
70902;BME280;58548;47.210;8.618;2024-03-02T11:23:35;92821.31;;;38.12;10.92
70902;BME280;58548;47.210;8.618;2024-03-02T11:26:21;92825.97;;;38.15;10.45
70902;BME280;58548;47.210;8.618;2024-03-02T11:28:50;92798.03;;;37.82;10.66
70902;BME280;58548;47.210;8.618;2024-03-02T11:31:17;92806.63;;;37.74;10.58
70902;BME280;58548;47.210;8.618;2024-03-02T11:33:42;92802.81;;;37.56;10.88
70902;BME280;58548;47.210;8.618;2024-03-02T11:36:13;92799.72;;;37.54;11.09
70902;BME280;58548;47.210;8.618;2024-03-02T11:38:46;92794.25;;;37.51;11.22
70902;BME280;58548;47.210;8.618;2024-03-02T11:41:12;92788.44;;;37.49;10.77
70902;BME280;58548;47.210;8.618;2024-03-02T11:43:40;92802.84;;;37.46;11.11
70902;BME280;58548;47.210;8.618;2024-03-02T11:46:10;92773.31;;;37.26;11.42
70902;BME280;58548;47.210;8.618;2024-03-02T11:48:37;92781.81;;;37.35;11.38
70902;BME280;58548;47.210;8.618;2024-03-02T11:51:04;92784.56;;;37.46;11.25
70902;BME280;58548;47.210;8.618;2024-03-02T11:53:35;92793.44;;;37.68;11.20
70902;BME280;58548;47.210;8.618;2024-03-02T11:56:09;92784.88;;;37.63;11.46
70902;BME280;58548;47.210;8.618;2024-03-02T11:58:39;92773.19;;;37.73;11.36
70902;BME280;58548;47.210;8.618;2024-03-02T12:01:07;92787.53;;;37.88;11.03
70902;BME280;58548;47.210;8.618;2024-03-02T12:03:34;92777.03;;;37.90;11.27
70902;BME280;58548;47.210;8.618;2024-03-02T12:06:03;92779.78;;;37.90;11.19
70902;BME280;58548;47.210;8.618;2024-03-02T12:08:29;92783.25;;;37.87;11.37
70902;BME280;58548;47.210;8.618;2024-03-02T12:11:02;92770.81;;;37.79;11.37
70902;BME280;58548;47.210;8.618;2024-03-02T12:13:28;92774.75;;;37.70;11.08
70902;BME280;58548;47.210;8.618;2024-03-02T12:15:55;92772.06;;;37.63;11.13
70902;BME280;58548;47.210;8.618;2024-03-02T12:18:22;92742.19;;;37.27;11.32
70902;BME280;58548;47.210;8.618;2024-03-02T12:20:49;92740.66;;;37.19;10.95
70902;BME280;58548;47.210;8.618;2024-03-02T12:23:20;92755.41;;;37.25;11.15
70902;BME280;58548;47.210;8.618;2024-03-02T12:25:47;92730.56;;;37.05;11.52
70902;BME280;58548;47.210;8.618;2024-03-02T12:28:16;92711.91;;;37.00;11.96
70902;BME280;58548;47.210;8.618;2024-03-02T12:30:46;92723.56;;;37.11;11.77
70902;BME280;58548;47.210;8.618;2024-03-02T12:33:14;92730.53;;;37.16;11.86
70902;BME280;58548;47.210;8.618;2024-03-02T12:35:41;92746.88;;;37.23;11.65
70902;BME280;58548;47.210;8.618;2024-03-02T12:38:17;92732.88;;;37.21;11.53
70902;BME280;58548;47.210;8.618;2024-03-02T12:40:48;92712.69;;;37.07;11.64
70902;BME280;58548;47.210;8.618;2024-03-02T12:43:17;92731.31;;;37.12;11.85
70902;BME280;58548;47.210;8.618;2024-03-02T12:45:43;92718.09;;;37.15;11.74
70902;BME280;58548;47.210;8.618;2024-03-02T12:48:14;92707.22;;;37.15;11.83
70902;BME280;58548;47.210;8.618;2024-03-02T12:50:41;92709.53;;;37.20;11.80
70902;BME280;58548;47.210;8.618;2024-03-02T12:53:17;92713.00;;;37.38;11.50
70902;BME280;58548;47.210;8.618;2024-03-02T12:55:43;92717.66;;;37.49;11.32
70902;BME280;58548;47.210;8.618;2024-03-02T12:58:22;92718.00;;;37.51;11.80
70902;BME280;58548;47.210;8.618;2024-03-02T13:01:08;92691.59;;;37.40;11.52
70902;BME280;58548;47.210;8.618;2024-03-02T13:03:36;92714.88;;;37.56;11.39
70902;BME280;58548;47.210;8.618;2024-03-02T13:06:02;92683.44;;;37.37;11.58
70902;BME280;58548;47.210;8.618;2024-03-02T13:08:31;92699.38;;;37.46;11.46
70902;BME280;58548;47.210;8.618;2024-03-02T13:11:01;92696.63;;;37.53;11.47
70902;BME280;58548;47.210;8.618;2024-03-02T13:13:30;92698.16;;;37.54;11.37
70902;BME280;58548;47.210;8.618;2024-03-02T13:15:59;92696.63;;;37.53;11.21